Time;durP1;ratioP1;P1;durP2;ratioP2;P2;SDS_P1;SDS_P2;PMS_P1;PMS_P2;Temp;Humidity;BMP_temperature;BMP_pressure;BME280_temperature;BME280_humidity;BME280_pressure;Samples;Min_cycle;Max_cycle;Signal;HPM_P1;HPM_P2
2021/08/04 00:01:11;;;;;;;3.20;1.98;;;18.00;99.90;;;;;;5071711;28;20254;-60
2021/08/04 00:03:38;;;;;;;2.63;2.20;;;18.00;99.90;;;;;;5071910;28;20657;-60
2021/08/04 00:06:05;;;;;;;2.67;2.10;;;17.90;99.90;;;;;;5071308;28;20212;-60
2021/08/04 00:08:32;;;;;;;5.50;2.75;;;17.90;99.90;;;;;;5071165;28;20216;-60
2021/08/04 00:10:58;;;;;;;3.17;1.90;;;17.90;99.90;;;;;;5071385;28;20258;-60
2021/08/04 00:13:25;;;;;;;2.83;2.03;;;18.00;99.90;;;;;;5071229;28;20216;-60
2021/08/04 00:15:52;;;;;;;2.22;2.03;;;18.00;99.90;;;;;;5071261;28;20240;-60
2021/08/04 00:18:20;;;;;;;1.65;1.55;;;18.00;99.90;;;;;;5071107;28;20569;-60
2021/08/04 00:20:47;;;;;;;2.72;2.08;;;18.00;99.90;;;;;;5071614;28;20204;-60
2021/08/04 00:23:13;;;;;;;2.63;1.90;;;18.00;99.90;;;;;;5071386;28;20212;-60
2021/08/04 00:25:40;;;;;;;3.65;1.70;;;18.10;99.90;;;;;;5071036;28;20240;-60
2021/08/04 00:28:07;;;;;;;2.58;1.67;;;18.00;99.90;;;;;;5071145;28;20208;-60
2021/08/04 00:30:33;;;;;;;3.28;1.80;;;18.10;99.90;;;;;;5071173;28;20209;-60
2021/08/04 00:33:00;;;;;;;2.95;1.80;;;18.00;99.90;;;;;;5071164;28;20213;-60
2021/08/04 00:35:28;;;;;;;3.08;1.70;;;18.00;99.90;;;;;;5071029;28;20229;-60
2021/08/04 00:37:55;;;;;;;2.75;1.98;;;18.00;99.90;;;;;;5070980;28;20680;-60
2021/08/04 00:40:23;;;;;;;2.08;1.42;;;18.10;99.90;;;;;;5070739;28;20262;-60
2021/08/04 00:42:49;;;;;;;2.50;1.60;;;18.10;99.90;;;;;;5071045;28;20211;-60
2021/08/04 00:45:16;;;;;;;3.83;1.70;;;18.20;99.90;;;;;;5071014;28;20294;-60
2021/08/04 00:47:44;;;;;;;4.75;1.85;;;18.20;99.90;;;;;;5071028;28;20212;-60
2021/08/04 00:50:11;;;;;;;2.55;1.83;;;18.20;99.90;;;;;;5071572;28;20255;-60
2021/08/04 00:52:39;;;;;;;2.67;1.80;;;18.10;99.90;;;;;;5071482;28;20281;-60
2021/08/04 00:55:07;;;;;;;2.80;1.52;;;18.10;99.90;;;;;;5070930;28;20220;-60
2021/08/04 00:57:34;;;;;;;3.28;1.65;;;18.00;99.90;;;;;;5071166;28;20208;-59
2021/08/04 01:00:00;;;;;;;3.03;1.60;;;18.10;99.90;;;;;;5070909;28;20205;-60
2021/08/04 01:02:32;;;;;;;2.72;1.90;;;18.00;99.90;;;;;;5070901;28;20713;-60
2021/08/04 01:05:05;;;;;;;3.15;1.73;;;18.00;99.90;;;;;;5070884;28;20282;-60
2021/08/04 01:07:34;;;;;;;5.80;1.92;;;17.90;99.90;;;;;;5070849;28;20250;-60
2021/08/04 01:10:09;;;;;;;4.78;2.00;;;17.90;99.90;;;;;;5070625;28;20205;-60
2021/08/04 01:12:43;;;;;;;2.17;1.90;;;18.00;99.90;;;;;;5070662;28;20208;-60
2021/08/04 01:15:13;;;;;;;2.65;1.88;;;17.90;99.90;;;;;;5070400;28;20268;-60
2021/08/04 01:17:45;;;;;;;1.73;1.58;;;17.80;99.90;;;;;;5070485;28;20702;-60
2021/08/04 01:20:14;;;;;;;3.60;1.90;;;17.80;99.90;;;;;;5070712;28;20262;-60
2021/08/04 01:22:53;;;;;;;2.60;1.73;;;17.80;99.90;;;;;;5070577;28;20270;-60
2021/08/04 01:25:26;;;;;;;2.83;1.67;;;17.70;99.90;;;;;;5070269;28;20281;-60
2021/08/04 01:28:18;;;;;;;2.90;1.95;;;17.80;99.90;;;;;;5070692;28;20209;-60
2021/08/04 01:30:46;;;;;;;3.50;1.70;;;17.80;99.90;;;;;;5070581;28;20236;-60
2021/08/04 01:33:14;;;;;;;1.90;1.70;;;17.70;99.90;;;;;;5070346;28;20212;-60
2021/08/04 01:35:43;;;;;;;2.10;1.90;;;17.80;99.90;;;;;;5070387;28;20236;-60
2021/08/04 01:38:12;;;;;;;3.10;1.60;;;17.80;99.90;;;;;;5070528;28;20213;-60
2021/08/04 01:40:40;;;;;;;3.90;1.85;;;17.80;99.90;;;;;;5070393;28;20224;-60
2021/08/04 01:43:08;;;;;;;2.80;1.75;;;17.80;99.90;;;;;;5071622;28;20254;-60
2021/08/04 01:45:37;;;;;;;4.60;2.05;;;17.80;99.90;;;;;;5071107;28;20708;-60
2021/08/04 01:48:05;;;;;;;2.13;1.80;;;17.70;99.90;;;;;;5071296;28;20205;-60
2021/08/04 01:50:31;;;;;;;3.45;2.00;;;17.70;99.90;;;;;;5071211;28;20205;-60
2021/08/04 01:52:59;;;;;;;3.40;1.83;;;17.70;99.90;;;;;;5072319;28;20205;-60
2021/08/04 01:55:26;;;;;;;3.08;1.63;;;17.70;99.90;;;;;;5074062;28;20233;-60
2021/08/04 01:57:53;;;;;;;4.75;1.60;;;17.70;99.90;;;;;;5074004;28;20209;-60
2021/08/04 02:00:20;;;;;;;1.80;1.70;;;17.70;99.90;;;;;;5074119;28;20215;-60
2021/08/04 02:02:48;;;;;;;3.90;1.80;;;17.70;99.90;;;;;;5074308;28;20262;-60
2021/08/04 02:05:14;;;;;;;2.03;1.70;;;17.70;99.90;;;;;;5073866;28;20221;-60
2021/08/04 02:08:00;;;;;;;1.75;1.65;;;17.70;99.90;;;;;;5074070;28;20209;-60
2021/08/04 02:10:34;;;;;;;2.30;1.85;;;17.80;99.90;;;;;;5073884;28;20205;-60
2021/08/04 02:13:10;;;;;;;1.80;1.65;;;17.80;99.90;;;;;;5073711;28;20617;-60
2021/08/04 02:15:40;;;;;;;2.00;1.70;;;17.80;99.90;;;;;;5073769;28;20229;-60
2021/08/04 02:18:13;;;;;;;3.35;1.70;;;17.80;99.90;;;;;;5073873;28;20262;-60
2021/08/04 02:20:45;;;;;;;3.97;2.03;;;17.80;99.90;;;;;;5073802;28;20550;-59
2021/08/04 02:23:15;;;;;;;3.20;1.70;;;17.70;99.90;;;;;;5073513;28;20228;-60
2021/08/04 02:25:46;;;;;;;3.58;1.63;;;17.60;99.90;;;;;;5073172;28;20245;-60
2021/08/04 02:28:17;;;;;;;2.87;1.90;;;17.60;99.90;;;;;;5073512;28;20212;-60
2021/08/04 02:30:44;;;;;;;3.25;2.13;;;17.60;99.90;;;;;;5073678;28;20262;-60
2021/08/04 02:33:12;;;;;;;3.10;1.73;;;17.60;99.90;;;;;;5073389;28;20231;-60
2021/08/04 02:35:39;;;;;;;5.15;2.10;;;17.50;99.90;;;;;;5073080;28;20231;-60
2021/08/04 02:38:06;;;;;;;2.83;1.70;;;17.60;99.90;;;;;;5073282;28;20216;-60
2021/08/04 02:40:32;;;;;;;2.80;1.58;;;17.60;99.90;;;;;;5073461;28;20239;-60
2021/08/04 02:43:01;;;;;;;3.97;1.70;;;17.60;99.90;;;;;;5073300;28;20201;-60
2021/08/04 02:45:28;;;;;;;4.28;1.70;;;17.70;99.90;;;;;;5073204;28;20479;-60
2021/08/04 02:47:56;;;;;;;1.90;1.45;;;17.60;99.90;;;;;;5073166;28;20212;-60
2021/08/04 02:50:25;;;;;;;2.27;1.80;;;17.70;99.90;;;;;;5073098;28;20231;-60
2021/08/04 02:52:52;;;;;;;2.72;1.55;;;17.70;99.90;;;;;;5073324;28;20254;-60
2021/08/04 02:55:19;;;;;;;2.00;1.77;;;17.60;99.90;;;;;;5073022;28;20232;-60
2021/08/04 02:57:46;;;;;;;3.60;1.90;;;17.60;99.90;;;;;;5073138;28;20217;-60
2021/08/04 03:00:13;;;;;;;3.92;1.90;;;17.60;99.90;;;;;;5072997;28;20201;-60
2021/08/04 03:02:40;;;;;;;3.28;1.85;;;17.70;99.90;;;;;;5073078;28;20648;-60
2021/08/04 03:05:07;;;;;;;3.88;2.55;;;17.60;99.90;;;;;;5072393;28;20229;-60
2021/08/04 03:07:36;;;;;;;4.50;2.78;;;17.60;99.90;;;;;;5072914;28;20205;-59
2021/08/04 03:10:03;;;;;;;2.47;1.75;;;17.60;99.90;;;;;;5072795;28;20262;-60
2021/08/04 03:12:30;;;;;;;3.80;2.20;;;17.60;99.90;;;;;;5072990;28;20212;-60
2021/08/04 03:14:56;;;;;;;3.80;2.90;;;17.50;99.90;;;;;;5072789;28;20237;-60
2021/08/04 03:17:23;;;;;;;2.90;1.85;;;17.60;99.90;;;;;;5073070;28;20231;-59
2021/08/04 03:19:50;;;;;;;2.47;1.75;;;17.50;99.90;;;;;;5072600;28;20213;-60
2021/08/04 03:22:16;;;;;;;2.30;2.10;;;17.40;99.90;;;;;;5072806;28;20216;-60
2021/08/04 03:24:44;;;;;;;2.53;1.80;;;17.40;99.90;;;;;;5072972;28;20241;-59
2021/08/04 03:27:11;;;;;;;2.57;2.37;;;17.30;99.90;;;;;;5072637;28;20600;-59
2021/08/04 03:29:38;;;;;;;2.40;2.20;;;17.30;99.90;;;;;;5072434;28;20200;-59
2021/08/04 03:32:05;;;;;;;2.43;1.97;;;17.30;99.90;;;;;;5072359;28;20209;-59
2021/08/04 03:34:32;;;;;;;7.18;3.40;;;17.30;99.90;;;;;;5071827;28;20229;-59
2021/08/04 03:36:59;;;;;;;4.28;2.47;;;17.20;99.90;;;;;;5072358;28;20220;-60
2021/08/04 03:39:25;;;;;;;4.75;2.28;;;17.30;99.90;;;;;;5072493;28;20722;-58
2021/08/04 03:41:53;;;;;;;3.05;1.98;;;17.30;99.90;;;;;;5072064;28;20688;-59
2021/08/04 03:44:20;;;;;;;8.25;5.38;;;17.30;99.90;;;;;;5072009;28;20232;-59
2021/08/04 03:46:47;;;;;;;2.78;2.10;;;17.20;99.90;;;;;;5072150;28;20201;-59
2021/08/04 03:49:16;;;;;;;2.43;1.93;;;17.30;99.90;;;;;;5072058;28;20209;-59
2021/08/04 03:51:43;;;;;;;7.40;4.10;;;17.20;99.90;;;;;;5071894;28;20213;-59
2021/08/04 03:54:10;;;;;;;3.83;2.58;;;17.20;99.90;;;;;;5072232;28;20224;-59
2021/08/04 03:56:36;;;;;;;5.83;4.73;;;17.20;99.90;;;;;;5071871;28;20228;-59
2021/08/04 03:59:04;;;;;;;5.80;4.00;;;17.20;99.90;;;;;;5071821;28;20209;-60
2021/08/04 04:01:31;;;;;;;2.50;2.17;;;17.20;99.90;;;;;;5071809;28;20680;-60
2021/08/04 04:03:58;;;;;;;3.38;2.30;;;17.10;99.90;;;;;;5071929;28;20318;-59
2021/08/04 04:06:24;;;;;;;3.90;2.43;;;17.20;99.90;;;;;;5071745;28;20615;-59
2021/08/04 04:08:51;;;;;;;4.13;2.42;;;17.20;99.90;;;;;;5071507;28;20266;-59
2021/08/04 04:11:18;;;;;;;3.90;1.90;;;17.20;99.90;;;;;;5071349;28;20213;-59
2021/08/04 04:13:44;;;;;;;7.50;1.98;;;17.20;99.90;;;;;;5070906;28;20201;-62
2021/08/04 04:16:12;;;;;;;2.17;1.88;;;17.10;99.90;;;;;;5070337;28;20228;-59
2021/08/04 04:18:39;;;;;;;5.88;2.42;;;17.10;99.90;;;;;;5070963;28;20208;-59
2021/08/04 04:21:06;;;;;;;2.97;2.22;;;17.00;99.90;;;;;;5071307;28;20250;-59
2021/08/04 04:23:33;;;;;;;13.70;9.43;;;17.00;99.90;;;;;;5070774;28;20201;-60
2021/08/04 04:26:01;;;;;;;6.25;4.78;;;17.00;99.90;;;;;;5071284;28;20278;-59
2021/08/04 04:28:27;;;;;;;6.72;4.70;;;17.00;99.90;;;;;;5070995;28;20205;-59
2021/08/04 04:30:54;;;;;;;5.53;3.90;;;17.10;99.90;;;;;;5071277;28;20210;-59
2021/08/04 04:33:22;;;;;;;3.40;2.60;;;17.10;99.90;;;;;;5071243;28;20209;-60
2021/08/04 04:35:49;;;;;;;4.53;2.90;;;17.10;99.90;;;;;;5071192;28;20684;-59
2021/08/04 04:38:16;;;;;;;5.13;3.00;;;17.20;99.90;;;;;;5070938;28;20274;-59
2021/08/04 04:40:43;;;;;;;5.53;2.63;;;17.20;99.90;;;;;;5070968;28;20231;-59
2021/08/04 04:43:09;;;;;;;6.47;2.85;;;17.20;99.90;;;;;;5071017;28;20205;-59
2021/08/04 04:45:37;;;;;;;5.50;2.90;;;17.20;99.90;;;;;;5070788;28;20236;-60
2021/08/04 04:48:05;;;;;;;3.78;2.05;;;17.20;99.90;;;;;;5070760;28;20212;-59
2021/08/04 04:50:34;;;;;;;5.03;2.30;;;17.20;99.90;;;;;;5070704;28;20258;-59
2021/08/04 04:53:01;;;;;;;3.17;2.65;;;17.20;99.90;;;;;;5070582;28;20209;-59
2021/08/04 04:55:28;;;;;;;3.92;2.60;;;17.30;99.90;;;;;;5070255;28;20231;-59
2021/08/04 04:57:54;;;;;;;2.80;2.30;;;17.30;99.90;;;;;;5070641;28;20284;-59
2021/08/04 05:00:21;;;;;;;3.35;2.50;;;17.40;99.90;;;;;;5070512;28;20692;-60
2021/08/04 05:02:47;;;;;;;4.13;2.30;;;17.40;99.90;;;;;;5070579;28;20212;-59
2021/08/04 05:05:14;;;;;;;3.78;2.70;;;17.40;99.90;;;;;;5070432;28;20282;-59
2021/08/04 05:07:42;;;;;;;4.53;2.88;;;17.40;99.90;;;;;;5070573;28;20209;-60
2021/08/04 05:10:10;;;;;;;4.85;2.45;;;17.40;99.90;;;;;;5071004;28;20205;-60
2021/08/04 05:12:36;;;;;;;2.85;2.55;;;17.50;99.90;;;;;;5070733;28;20664;-59
2021/08/04 05:15:03;;;;;;;4.38;2.42;;;17.60;99.90;;;;;;5069962;28;20239;-59
2021/08/04 05:17:30;;;;;;;6.07;2.53;;;17.60;99.90;;;;;;5070551;28;20270;-59
2021/08/04 05:19:57;;;;;;;3.60;2.22;;;17.80;99.90;;;;;;5070371;28;20235;-59
2021/08/04 05:22:24;;;;;;;4.05;2.58;;;18.00;99.90;;;;;;5070342;28;20650;-60
2021/08/04 05:24:52;;;;;;;2.70;1.92;;;18.10;99.90;;;;;;5070169;28;20724;-60
2021/08/04 05:27:18;;;;;;;4.00;1.90;;;18.20;99.90;;;;;;5073018;28;20201;-60
2021/08/04 05:29:45;;;;;;;3.28;2.20;;;18.30;99.90;;;;;;5074699;28;20262;-58
2021/08/04 05:32:11;;;;;;;9.57;2.50;;;18.30;99.90;;;;;;5074691;28;20208;-59
2021/08/04 05:34:38;;;;;;;3.78;2.40;;;18.40;99.90;;;;;;5074325;28;20281;-59
2021/08/04 05:37:05;;;;;;;5.07;2.60;;;18.50;99.90;;;;;;5074301;28;20221;-59
2021/08/04 05:39:32;;;;;;;2.53;1.95;;;18.50;99.90;;;;;;5074892;28;20212;-59
2021/08/04 05:42:00;;;;;;;5.53;2.20;;;18.50;99.90;;;;;;5074376;28;20204;-59
2021/08/04 05:44:26;;;;;;;4.47;2.30;;;18.60;99.90;;;;;;5074058;28;20236;-59
2021/08/04 05:46:53;;;;;;;3.25;2.00;;;19.00;99.90;;;;;;5074283;28;20201;-59
2021/08/04 05:49:20;;;;;;;2.30;1.83;;;20.50;99.90;;;;;;5074349;28;20212;-59
2021/08/04 05:51:47;;;;;;;4.68;1.73;;;22.50;99.90;;;;;;5073924;28;20209;-59
2021/08/04 05:54:14;;;;;;;4.95;3.13;;;24.20;99.90;;;;;;5074019;28;20321;-59
2021/08/04 05:56:41;;;;;;;3.55;1.52;;;25.90;99.90;;;;;;5074238;28;20232;-60
2021/08/04 05:59:09;;;;;;;5.28;2.63;;;27.30;99.90;;;;;;5073921;28;20582;-61
2021/08/04 06:01:35;;;;;;;3.05;2.22;;;28.30;99.90;;;;;;5074290;28;20750;-60
2021/08/04 06:04:02;;;;;;;4.07;1.60;;;29.20;99.30;;;;;;5074184;28;20782;-60
2021/08/04 06:06:29;;;;;;;1.55;1.30;;;30.30;95.70;;;;;;5074115;28;20208;-60
2021/08/04 06:08:55;;;;;;;2.75;1.65;;;31.20;92.00;;;;;;5073918;28;20626;-59
2021/08/04 06:11:22;;;;;;;3.13;1.75;;;31.70;89.30;;;;;;5074074;28;20204;-60
2021/08/04 06:13:49;;;;;;;1.75;1.60;;;32.40;84.40;;;;;;5073897;28;20205;-60
2021/08/04 06:16:17;;;;;;;1.77;1.38;;;33.40;80.30;;;;;;5073988;28;20228;-60
2021/08/04 06:18:44;;;;;;;2.47;1.63;;;34.10;71.50;;;;;;5073807;28;20200;-60
2021/08/04 06:21:11;;;;;;;2.38;1.48;;;34.60;66.40;;;;;;5074102;28;20224;-61
2021/08/04 06:23:37;;;;;;;4.05;1.70;;;35.50;63.60;;;;;;5073961;28;20648;-60
2021/08/04 06:26:04;;;;;;;2.92;1.42;;;36.50;58.50;;;;;;5074172;28;20200;-60
2021/08/04 06:28:31;;;;;;;2.67;1.23;;;36.80;57.00;;;;;;5074079;28;20205;-61
2021/08/04 06:30:58;;;;;;;2.92;1.33;;;36.90;54.60;;;;;;5074052;28;20204;-60
2021/08/04 06:33:26;;;;;;;1.10;1.00;;;36.10;54.90;;;;;;5073819;28;20208;-59
2021/08/04 06:35:52;;;;;;;2.00;1.20;;;34.80;55.50;;;;;;5073955;28;20224;-59
2021/08/04 06:38:19;;;;;;;1.58;1.45;;;33.30;57.40;;;;;;5073143;28;20219;-61
2021/08/04 06:40:46;;;;;;;3.38;1.50;;;31.20;60.80;;;;;;5073740;28;20209;-59
2021/08/04 06:43:12;;;;;;;3.85;2.97;;;29.50;65.50;;;;;;5073469;28;20209;-58
2021/08/04 06:45:39;;;;;;;2.20;1.50;;;28.10;70.00;;;;;;5072955;28;20550;-58
2021/08/04 06:48:09;;;;;;;2.00;1.52;;;26.90;74.40;;;;;;5073085;28;20201;-60
2021/08/04 06:50:38;;;;;;;3.35;1.30;;;26.70;76.50;;;;;;5073675;28;20312;-59
2021/08/04 06:53:04;;;;;;;1.90;1.40;;;27.30;75.00;;;;;;5073603;28;20250;-59
2021/08/04 06:55:31;;;;;;;2.65;1.60;;;27.90;74.10;;;;;;5073427;28;20229;-58
2021/08/04 06:57:58;;;;;;;2.55;1.65;;;28.10;72.90;;;;;;5073141;28;20229;-60
2021/08/04 07:00:24;;;;;;;2.53;1.50;;;28.00;73.50;;;;;;5073316;28;20209;-59
2021/08/04 07:02:51;;;;;;;1.58;1.30;;;27.80;74.90;;;;;;5073606;28;20205;-59
2021/08/04 07:05:18;;;;;;;3.08;1.40;;;27.60;75.00;;;;;;5072752;28;20232;-59
2021/08/04 07:07:47;;;;;;;1.60;1.50;;;27.50;75.10;;;;;;5073411;28;20196;-59
2021/08/04 07:10:15;;;;;;;1.67;1.58;;;27.30;76.30;;;;;;5073683;28;20208;-59
2021/08/04 07:12:42;;;;;;;2.03;1.60;;;27.10;76.80;;;;;;5074108;28;20235;-59
2021/08/04 07:15:09;;;;;;;2.05;1.50;;;26.90;77.90;;;;;;5072610;28;20232;-59
2021/08/04 07:17:44;;;;;;;2.55;1.70;;;26.70;79.70;;;;;;5072836;28;20278;-60
2021/08/04 07:20:12;;;;;;;3.63;1.70;;;26.50;80.80;;;;;;5072803;28;20204;-59
2021/08/04 07:22:38;;;;;;;3.15;1.65;;;26.30;80.70;;;;;;5072632;28;20253;-60
2021/08/04 07:25:08;;;;;;;3.67;2.00;;;26.30;80.90;;;;;;5072175;28;20237;-60
2021/08/04 07:27:35;;;;;;;1.85;1.58;;;26.10;81.10;;;;;;5072356;28;20201;-59
2021/08/04 07:30:03;;;;;;;6.00;1.77;;;25.90;82.20;;;;;;5072331;28;20587;-60
2021/08/04 07:32:29;;;;;;;2.53;1.60;;;26.20;82.70;;;;;;5072602;28;20684;-58
2021/08/04 07:35:00;;;;;;;2.97;1.65;;;26.80;80.40;;;;;;5072341;28;20228;-59
2021/08/04 07:37:27;;;;;;;1.77;1.30;;;27.20;78.50;;;;;;5072587;28;20232;-58
2021/08/04 07:39:54;;;;;;;2.40;1.38;;;27.90;77.20;;;;;;5072906;28;20209;-59
2021/08/04 07:42:22;;;;;;;1.70;1.60;;;28.30;76.90;;;;;;5072409;28;20212;-59
2021/08/04 07:44:49;;;;;;;2.45;1.60;;;28.70;74.60;;;;;;5072165;28;20235;-58
2021/08/04 07:47:15;;;;;;;2.00;1.70;;;29.20;73.60;;;;;;5072433;28;20209;-65
2021/08/04 07:49:42;;;;;;;3.38;1.77;;;29.40;72.00;;;;;;5071401;28;20213;-61
2021/08/04 07:52:10;;;;;;;2.95;1.70;;;29.20;71.90;;;;;;5072305;28;20254;-62
2021/08/04 07:54:38;;;;;;;3.20;1.60;;;29.00;71.70;;;;;;5071855;28;20220;-61
2021/08/04 07:57:05;;;;;;;2.03;1.60;;;28.80;72.10;;;;;;5072183;28;20243;-61
2021/08/04 07:59:33;;;;;;;3.15;1.60;;;28.80;72.00;;;;;;5071986;28;20205;-61
2021/08/04 08:02:00;;;;;;;3.08;1.80;;;28.90;70.90;;;;;;5072004;28;20208;-62
2021/08/04 08:04:27;;;;;;;1.52;1.38;;;29.90;69.30;;;;;;5071594;28;20233;-62
2021/08/04 08:06:53;;;;;;;2.80;1.65;;;31.40;65.00;;;;;;5071781;28;20209;-62
2021/08/04 08:09:21;;;;;;;2.50;1.50;;;31.70;62.30;;;;;;5071606;28;20205;-63
2021/08/04 08:11:50;;;;;;;2.40;1.67;;;30.80;63.80;;;;;;5071728;28;20240;-63
2021/08/04 08:14:17;;;;;;;2.65;1.63;;;30.20;65.20;;;;;;5071419;28;20641;-61
2021/08/04 08:16:45;;;;;;;5.00;1.77;;;29.40;67.20;;;;;;5071594;28;20696;-61
2021/08/04 08:19:11;;;;;;;1.95;1.75;;;28.70;69.50;;;;;;5071307;28;20212;-61
2021/08/04 08:21:38;;;;;;;1.75;1.40;;;28.10;70.60;;;;;;5071103;28;20224;-61
2021/08/04 08:24:05;;;;;;;2.10;1.63;;;27.80;71.60;;;;;;5071006;28;20436;-61
2021/08/04 08:26:32;;;;;;;2.10;1.60;;;28.20;71.10;;;;;;5071422;28;20221;-62
2021/08/04 08:28:59;;;;;;;3.88;1.50;;;27.80;71.60;;;;;;5071284;28;20209;-63
2021/08/04 08:31:26;;;;;;;3.63;1.70;;;27.10;72.80;;;;;;5071448;28;20205;-62
2021/08/04 08:33:54;;;;;;;2.13;1.58;;;27.30;72.80;;;;;;5071604;28;20570;-62
2021/08/04 08:36:21;;;;;;;3.15;2.00;;;27.90;72.10;;;;;;5071736;28;20211;-63
2021/08/04 08:38:49;;;;;;;1.77;1.55;;;28.10;72.00;;;;;;5071758;28;20236;-63
2021/08/04 08:41:17;;;;;;;1.55;1.40;;;28.10;69.40;;;;;;5071274;28;20224;-62
2021/08/04 08:43:44;;;;;;;2.85;1.80;;;27.90;69.40;;;;;;5071080;28;20216;-62
2021/08/04 08:46:11;;;;;;;2.47;1.50;;;27.60;70.50;;;;;;5071235;28;20211;-62
2021/08/04 08:48:38;;;;;;;2.65;1.60;;;27.50;70.20;;;;;;5070824;28;20205;-62
2021/08/04 08:51:06;;;;;;;2.00;1.70;;;27.50;70.50;;;;;;5070868;28;20209;-62
2021/08/04 08:53:34;;;;;;;3.15;1.73;;;27.70;69.80;;;;;;5070701;28;20209;-62
2021/08/04 08:56:01;;;;;;;4.72;1.63;;;27.60;69.60;;;;;;5070940;28;20255;-62
2021/08/04 08:58:27;;;;;;;6.03;1.80;;;27.30;71.40;;;;;;5070537;28;20231;-61
2021/08/04 09:00:54;;;;;;;2.28;1.75;;;27.20;71.60;;;;;;5070628;28;20205;-62
2021/08/04 09:03:21;;;;;;;3.60;1.70;;;27.40;71.60;;;;;;5070614;28;20212;-62
2021/08/04 09:05:49;;;;;;;2.15;1.73;;;27.50;71.40;;;;;;5070738;28;20225;-62
2021/08/04 09:08:25;;;;;;;1.50;1.30;;;27.60;71.80;;;;;;5070958;28;20209;-61
2021/08/04 09:10:52;;;;;;;7.00;4.40;;;27.70;72.20;;;;;;5070970;28;20565;-61
2021/08/04 09:13:30;;;;;;;4.32;2.35;;;27.90;71.80;;;;;;5070591;28;20586;-61
2021/08/04 09:16:04;;;;;;;3.55;1.90;;;28.30;70.80;;;;;;5070638;28;20676;-61
2021/08/04 09:18:39;;;;;;;2.25;1.45;;;28.50;69.60;;;;;;5070706;28;20232;-61
2021/08/04 09:21:05;;;;;;;1.70;1.50;;;28.50;69.40;;;;;;5070930;28;20299;-61
2021/08/04 09:23:41;;;;;;;1.48;1.38;;;28.40;69.30;;;;;;5071067;28;20269;-61
2021/08/04 09:26:09;;;;;;;2.08;1.70;;;28.40;69.50;;;;;;5112355;22;20228;-61
2021/08/04 09:28:53;;;;;;;3.50;1.70;;;28.40;69.70;;;;;;5090993;28;20204;-61
2021/08/04 09:31:21;;;;;;;2.58;1.65;;;28.20;68.50;;;;;;5090837;28;20737;-60
2021/08/04 09:33:48;;;;;;;2.60;1.58;;;28.20;69.10;;;;;;5090973;28;20253;-61
2021/08/04 09:36:27;;;;;;;3.88;1.63;;;28.30;69.50;;;;;;5090885;28;20412;-61
2021/08/04 09:39:06;;;;;;;2.88;1.55;;;28.10;69.80;;;;;;5090674;28;20327;-61
2021/08/04 09:41:33;;;;;;;6.72;5.30;;;27.60;71.20;;;;;;5091217;28;20229;-61
2021/08/04 09:44:04;;;;;;;4.70;1.88;;;27.50;73.40;;;;;;5090731;28;20212;-61
2021/08/04 09:46:31;;;;;;;2.97;1.65;;;27.20;75.00;;;;;;5090838;28;20207;-61
2021/08/04 09:49:10;;;;;;;3.58;1.52;;;26.40;76.90;;;;;;5090625;28;20576;-61
2021/08/04 09:51:37;;;;;;;3.10;1.65;;;26.00;77.90;;;;;;5091355;28;20208;-61
2021/08/04 09:54:09;;;;;;;3.28;1.70;;;26.00;78.10;;;;;;5090615;28;20261;-61
2021/08/04 09:56:48;;;;;;;2.63;1.77;;;26.00;78.40;;;;;;5090660;28;20212;-61
2021/08/04 09:59:15;;;;;;;2.47;1.90;;;25.80;77.60;;;;;;5090471;28;20580;-60
2021/08/04 10:01:42;;;;;;;1.83;1.52;;;25.60;77.50;;;;;;5090878;28;20204;-61
2021/08/04 10:04:10;;;;;;;4.90;2.00;;;25.40;77.90;;;;;;5090358;28;20668;-61
2021/08/04 10:06:38;;;;;;;3.47;1.65;;;25.40;79.00;;;;;;5090954;28;20231;-61
2021/08/04 10:09:06;;;;;;;5.85;2.20;;;25.40;80.40;;;;;;5090571;28;20208;-62
2021/08/04 10:11:35;;;;;;;2.88;1.65;;;24.80;82.20;;;;;;5090523;28;20204;-61
2021/08/04 10:14:02;;;;;;;2.63;2.08;;;24.40;84.80;;;;;;5092294;28;20574;-61
2021/08/04 10:16:31;;;;;;;2.83;1.90;;;24.10;87.40;;;;;;5094099;28;20304;-62
2021/08/04 10:18:59;;;;;;;2.70;1.98;;;24.20;87.30;;;;;;5093951;28;20756;-61
2021/08/04 10:21:25;;;;;;;3.03;1.95;;;24.40;86.60;;;;;;5094134;28;20667;-61
2021/08/04 10:23:53;;;;;;;1.77;1.48;;;24.40;86.50;;;;;;5094228;28;20213;-61
2021/08/04 10:26:21;;;;;;;2.97;2.08;;;24.20;87.50;;;;;;5094337;28;20239;-61
2021/08/04 10:28:54;;;;;;;2.70;1.77;;;24.40;87.00;;;;;;5094117;28;20660;-61
2021/08/04 10:31:21;;;;;;;2.35;1.60;;;24.70;86.30;;;;;;5094237;28;20201;-61
2021/08/04 10:33:48;;;;;;;2.75;1.80;;;24.80;85.20;;;;;;5094002;28;20683;-61
2021/08/04 10:36:16;;;;;;;2.17;1.90;;;24.80;85.10;;;;;;5093995;28;20220;-61
2021/08/04 10:38:49;;;;;;;2.00;1.70;;;24.50;85.10;;;;;;5094025;28;20527;-61
2021/08/04 10:41:17;;;;;;;3.05;1.60;;;24.60;85.60;;;;;;5093774;28;20216;-61
2021/08/04 10:43:46;;;;;;;2.58;1.65;;;24.80;84.60;;;;;;5093783;28;20208;-61
2021/08/04 10:46:41;;;;;;;1.55;1.45;;;25.00;82.90;;;;;;5093719;28;20228;-61
2021/08/04 10:49:29;;;;;;;2.03;1.85;;;25.20;81.90;;;;;;5094339;28;20234;-61
2021/08/04 10:52:12;;;;;;;3.00;1.70;;;25.50;82.10;;;;;;5093884;28;20676;-61
2021/08/04 10:55:03;;;;;;;2.88;1.40;;;25.90;80.70;;;;;;5092215;28;20231;-61
2021/08/04 10:57:33;;;;;;;2.15;1.67;;;26.30;79.50;;;;;;5093578;28;20646;-61
2021/08/04 11:00:22;;;;;;;2.70;1.52;;;26.40;77.70;;;;;;5093795;28;20208;-61
2021/08/04 11:02:50;;;;;;;2.38;1.50;;;26.20;77.70;;;;;;5093772;28;20232;-61
2021/08/04 11:05:17;;;;;;;4.47;3.67;;;26.10;78.30;;;;;;5093330;28;20315;-61
2021/08/04 11:08:14;;;;;;;2.45;1.80;;;26.20;78.30;;;;;;5093365;28;20537;-61
2021/08/04 11:10:42;;;;;;;1.92;1.30;;;26.40;78.20;;;;;;5093541;28;20242;-60
2021/08/04 11:13:09;;;;;;;3.30;1.75;;;26.40;76.90;;;;;;5093356;28;20204;-61
2021/08/04 11:15:35;;;;;;;1.42;1.17;;;26.50;76.50;;;;;;5093244;28;20235;-61
2021/08/04 11:18:13;;;;;;;1.60;1.30;;;26.80;75.90;;;;;;5093053;28;20252;-61
2021/08/04 11:20:56;;;;;;;2.25;1.73;;;26.90;75.10;;;;;;5093577;28;20299;-61
2021/08/04 11:23:45;;;;;;;2.03;1.40;;;26.80;75.00;;;;;;5093028;28;20240;-60
2021/08/04 11:26:30;;;;;;;2.05;1.52;;;26.50;76.70;;;;;;5092659;28;20271;-61
2021/08/04 11:28:58;;;;;;;1.60;1.33;;;26.10;78.30;;;;;;5092847;28;20199;-61
2021/08/04 11:31:26;;;;;;;2.10;1.58;;;26.10;77.60;;;;;;5092740;28;20295;-61
2021/08/04 11:33:55;;;;;;;3.28;1.60;;;26.40;77.50;;;;;;5093034;28;20201;-61
2021/08/04 11:36:32;;;;;;;1.60;1.10;;;26.60;76.90;;;;;;5092853;28;20208;-61
2021/08/04 11:39:02;;;;;;;2.35;1.60;;;26.80;76.10;;;;;;5092806;28;20228;-61
2021/08/04 11:41:37;;;;;;;1.17;1.05;;;27.10;75.50;;;;;;5092630;28;20216;-61
2021/08/04 11:44:13;;;;;;;1.60;1.15;;;27.20;75.00;;;;;;5091918;28;20195;-61
2021/08/04 11:46:42;;;;;;;1.67;1.15;;;27.40;74.20;;;;;;5092316;28;20204;-61
2021/08/04 11:49:13;;;;;;;1.95;1.58;;;27.60;72.60;;;;;;5092593;28;20204;-61
2021/08/04 11:51:43;;;;;;;3.65;1.52;;;27.60;73.00;;;;;;5092511;28;20227;-60
2021/08/04 11:54:11;;;;;;;1.63;1.50;;;27.30;73.90;;;;;;5092215;28;20215;-60
2021/08/04 11:56:46;;;;;;;1.83;1.30;;;27.10;74.40;;;;;;5092882;28;20262;-61
2021/08/04 11:59:14;;;;;;;2.47;1.77;;;27.10;74.50;;;;;;5092174;28;20304;-61
2021/08/04 12:01:53;;;;;;;1.30;1.10;;;27.40;74.10;;;;;;5092519;28;20406;-61
2021/08/04 12:04:21;;;;;;;2.13;1.55;;;27.50;73.70;;;;;;5092056;28;20228;-61
2021/08/04 12:06:57;;;;;;;2.05;1.20;;;27.70;73.40;;;;;;5092147;28;20668;-61
2021/08/04 12:09:26;;;;;;;1.77;1.27;;;27.90;72.40;;;;;;5092682;28;20204;-61
2021/08/04 12:11:54;;;;;;;1.33;1.23;;;28.00;72.70;;;;;;5092571;28;20204;-61
2021/08/04 12:14:21;;;;;;;1.60;1.30;;;27.80;72.50;;;;;;5092184;28;20567;-59
2021/08/04 12:16:51;;;;;;;1.83;1.40;;;27.70;72.00;;;;;;5092028;28;20242;-60
2021/08/04 12:19:44;;;;;;;2.28;1.45;;;27.70;72.10;;;;;;5091760;28;20216;-60
2021/08/04 12:22:18;;;;;;;1.75;1.50;;;27.70;72.20;;;;;;5082047;28;20211;-60
2021/08/04 12:24:54;;;;;;;3.38;1.50;;;27.90;72.40;;;;;;5091610;28;20234;-60
2021/08/04 12:27:37;;;;;;;1.42;1.20;;;28.10;72.10;;;;;;5091918;28;20598;-60
2021/08/04 12:30:12;;;;;;;2.08;1.52;;;28.40;71.10;;;;;;5091838;28;20676;-61
2021/08/04 12:32:51;;;;;;;1.65;1.50;;;28.60;69.50;;;;;;5091773;28;20204;-61
2021/08/04 12:35:24;;;;;;;1.63;1.30;;;28.80;69.60;;;;;;5091615;28;20223;-61
2021/08/04 12:37:51;;;;;;;3.40;2.80;;;29.10;69.10;;;;;;5091053;28;20211;-61
2021/08/04 12:40:18;;;;;;;1.45;1.30;;;29.50;68.60;;;;;;5091890;28;20216;-61
2021/08/04 12:42:45;;;;;;;2.45;1.08;;;29.60;67.10;;;;;;5091583;28;20212;-61
2021/08/04 12:45:24;;;;;;;1.48;1.10;;;29.70;67.00;;;;;;5091457;28;20317;-61
2021/08/04 12:47:54;;;;;;;1.20;1.10;;;29.80;66.30;;;;;;5091415;28;20204;-61
2021/08/04 12:50:23;;;;;;;1.98;1.30;;;29.80;66.30;;;;;;5091341;28;20307;-61
2021/08/04 12:52:50;;;;;;;1.48;1.23;;;29.80;66.30;;;;;;5091706;28;20212;-61
2021/08/04 12:55:17;;;;;;;1.92;1.23;;;29.90;66.20;;;;;;5091212;28;20228;-61
2021/08/04 12:57:45;;;;;;;1.65;1.33;;;29.90;65.80;;;;;;5091309;28;20664;-61